createdAt,value
2019-05-10T00:00:46.521Z,1.20
2019-05-10T00:02:08.442Z,1.25
2019-05-10T00:03:30.852Z,1.67
2019-05-10T00:04:53.082Z,1.10
2019-05-10T00:06:15.224Z,1.47
2019-05-10T00:07:37.097Z,1.05
2019-05-10T00:08:46.531Z,1.22
2019-05-10T00:09:50.078Z,1.30
2019-05-10T00:11:12.118Z,1.05
2019-05-10T00:12:53.653Z,1.20
2019-05-10T00:14:17.040Z,1.10
2019-05-10T00:15:24.003Z,1.10
2019-05-10T00:16:28.770Z,1.32
2019-05-10T00:17:34.350Z,1.32
2019-05-10T00:18:38.982Z,1.40
2019-05-10T00:19:43.441Z,1.10
2019-05-10T00:20:48.129Z,1.07
2019-05-10T00:21:52.537Z,1.10
2019-05-10T00:22:57.158Z,1.22
2019-05-10T00:24:01.676Z,1.10
2019-05-10T00:25:06.618Z,1.07
2019-05-10T00:26:11.104Z,1.05
2019-05-10T00:27:15.878Z,1.10
2019-05-10T00:28:20.562Z,1.00
2019-05-10T00:29:25.279Z,1.20
2019-05-10T00:30:29.866Z,1.00
2019-05-10T00:31:34.519Z,1.10
2019-05-10T00:32:39.033Z,1.10
2019-05-10T00:33:43.686Z,1.10
2019-05-10T00:34:48.354Z,1.12
2019-05-10T00:35:53.010Z,1.10
2019-05-10T00:36:57.489Z,0.90
2019-05-10T00:38:02.194Z,0.93
2019-05-10T00:39:07.615Z,1.10
2019-05-10T00:40:12.557Z,1.37
2019-05-10T00:41:17.015Z,1.17
2019-05-10T00:42:21.787Z,1.20
2019-05-10T00:43:26.330Z,1.07
2019-05-10T00:44:30.987Z,0.90
2019-05-10T00:45:35.438Z,1.02
2019-05-10T00:46:40.050Z,1.00
2019-05-10T00:47:44.511Z,1.10
2019-05-10T00:48:49.202Z,1.20
2019-05-10T00:49:53.685Z,1.07
2019-05-10T00:51:00.617Z,1.20
2019-05-10T00:52:05.167Z,1.00
2019-05-10T00:53:09.865Z,1.12
2019-05-10T00:54:14.370Z,1.30
2019-05-10T00:55:19.599Z,1.10
2019-05-10T00:56:24.233Z,1.07
2019-05-10T00:57:28.866Z,1.15
2019-05-10T00:58:33.374Z,0.93
2019-05-10T00:59:41.025Z,1.00
2019-05-10T01:00:45.535Z,0.90
2019-05-10T01:01:50.234Z,0.75
2019-05-10T01:02:56.074Z,1.00
2019-05-10T01:04:00.680Z,1.10
2019-05-10T01:05:05.225Z,1.02
2019-05-10T01:06:09.977Z,1.15
2019-05-10T01:07:14.488Z,1.10
2019-05-10T01:08:19.178Z,1.30
2019-05-10T01:09:24.744Z,0.93
2019-05-10T01:10:29.434Z,1.00
2019-05-10T01:11:33.971Z,1.05
2019-05-10T01:12:38.620Z,0.90
2019-05-10T01:13:43.152Z,1.00
2019-05-10T01:14:47.820Z,1.00
2019-05-10T01:15:52.305Z,0.90
2019-05-10T01:16:56.956Z,0.90
2019-05-10T01:18:01.498Z,1.20
2019-05-10T01:19:06.184Z,1.10
2019-05-10T01:20:10.806Z,1.20
2019-05-10T01:21:15.530Z,1.30
2019-05-10T01:22:19.973Z,1.07
2019-05-10T01:23:24.616Z,1.00
2019-05-10T01:24:29.063Z,1.00
2019-05-10T01:25:35.666Z,1.00
2019-05-10T01:26:39.997Z,1.10
2019-05-10T01:27:44.609Z,1.10
2019-05-10T01:28:49.096Z,1.10
2019-05-10T01:29:53.842Z,1.10
2019-05-10T01:30:58.401Z,1.32
2019-05-10T01:32:03.025Z,1.02
2019-05-10T01:33:07.485Z,1.10
2019-05-10T01:34:12.190Z,0.93
2019-05-10T01:35:16.610Z,0.78
2019-05-10T01:36:23.863Z,1.00
2019-05-10T01:37:28.336Z,1.00
2019-05-10T01:38:33.035Z,1.20
2019-05-10T01:39:37.507Z,1.10
2019-05-10T01:40:42.312Z,0.95
2019-05-10T01:41:46.765Z,1.07
2019-05-10T01:42:51.381Z,1.22
2019-05-10T01:43:55.866Z,0.95
2019-05-10T01:45:00.517Z,1.20
2019-05-10T01:46:04.941Z,0.80
2019-05-10T01:47:09.572Z,1.12
2019-05-10T01:48:14.077Z,0.90
2019-05-10T01:49:18.717Z,0.90
2019-05-10T01:50:23.198Z,0.80
2019-05-10T01:51:28.132Z,1.30
2019-05-10T01:52:32.637Z,0.90
2019-05-10T01:53:37.260Z,1.27
2019-05-10T01:54:41.738Z,1.10
2019-05-10T01:55:52.053Z,1.10
2019-05-10T01:56:52.633Z,1.02
2019-05-10T01:57:57.284Z,1.10
2019-05-10T01:59:01.743Z,1.35
2019-05-10T02:00:08.071Z,1.10
2019-05-10T02:01:12.522Z,0.80
2019-05-10T02:02:17.202Z,0.90
2019-05-10T02:03:21.666Z,1.15
2019-05-10T02:04:26.358Z,0.98
2019-05-10T02:05:30.987Z,0.93
2019-05-10T02:06:35.640Z,1.07
2019-05-10T02:07:40.093Z,1.02
2019-05-10T02:08:44.733Z,0.95
2019-05-10T02:09:49.217Z,1.15
2019-05-10T02:10:53.943Z,1.00
2019-05-10T02:11:58.398Z,0.90
2019-05-10T02:13:03.122Z,1.00
2019-05-10T02:14:07.535Z,1.10
2019-05-10T02:15:12.330Z,1.00
2019-05-10T02:16:16.859Z,1.17
2019-05-10T02:17:21.492Z,0.90
2019-05-10T02:18:25.976Z,0.90
2019-05-10T02:19:30.622Z,0.82
2019-05-10T02:20:35.166Z,1.05
2019-05-10T02:21:39.857Z,0.90
2019-05-10T02:22:44.500Z,1.00
2019-05-10T02:23:49.173Z,1.00
2019-05-10T02:24:53.652Z,1.20
2019-05-10T02:26:08.842Z,0.95
2019-05-10T02:27:05.285Z,0.93
2019-05-10T02:28:09.959Z,0.90
2019-05-10T02:29:14.425Z,0.93
2019-05-10T02:30:19.170Z,1.17
2019-05-10T02:31:23.683Z,1.00
2019-05-10T02:32:28.329Z,0.90
2019-05-10T02:33:32.806Z,1.00
2019-05-10T02:34:37.445Z,0.90
2019-05-10T02:35:41.892Z,1.07
2019-05-10T02:36:46.605Z,0.98
2019-05-10T02:37:51.094Z,0.90
2019-05-10T02:38:55.743Z,0.85
2019-05-10T02:40:00.286Z,0.80
2019-05-10T02:41:05.026Z,1.00
2019-05-10T02:42:09.571Z,1.07
2019-05-10T02:43:14.291Z,0.90
2019-05-10T02:44:18.764Z,1.00
2019-05-10T02:45:23.402Z,1.05
2019-05-10T02:46:27.865Z,0.90
2019-05-10T02:47:32.575Z,1.00
2019-05-10T02:48:37.124Z,1.10
2019-05-10T02:49:41.795Z,1.07
2019-05-10T02:50:46.253Z,0.72
2019-05-10T02:51:50.882Z,0.90
2019-05-10T02:52:55.435Z,0.90
2019-05-10T02:54:00.366Z,0.88
2019-05-10T02:55:04.984Z,1.00
2019-05-10T02:56:27.845Z,0.93
2019-05-10T02:57:16.414Z,0.90
2019-05-10T02:58:21.263Z,0.90
2019-05-10T02:59:26.571Z,1.20
2019-05-10T03:00:31.289Z,0.80
2019-05-10T03:01:37.226Z,0.82
2019-05-10T03:02:42.695Z,0.90
2019-05-10T03:03:47.983Z,0.90
2019-05-10T03:04:54.509Z,1.00
2019-05-10T03:06:00.043Z,1.00
2019-05-10T03:07:05.443Z,0.90
2019-05-10T03:08:10.022Z,0.82
2019-05-10T03:09:14.667Z,0.93
2019-05-10T03:10:19.190Z,1.10
2019-05-10T03:11:23.998Z,1.22
2019-05-10T03:12:28.657Z,0.90
2019-05-10T03:13:33.394Z,0.82
2019-05-10T03:14:42.593Z,0.90
2019-05-10T03:15:48.103Z,0.90
2019-05-10T03:16:53.451Z,1.20
2019-05-10T03:17:59.140Z,1.15
2019-05-10T03:19:04.832Z,1.32
2019-05-10T03:20:10.013Z,1.25
2019-05-10T03:21:16.182Z,1.00
2019-05-10T03:22:22.307Z,1.05
2019-05-10T03:23:27.604Z,1.00
2019-05-10T03:24:32.258Z,0.90
2019-05-10T03:25:36.765Z,0.80
2019-05-10T03:26:50.952Z,0.78
2019-05-10T03:27:49.222Z,1.10
2019-05-10T03:28:53.846Z,1.00
2019-05-10T03:29:58.284Z,0.82
2019-05-10T03:31:03.050Z,1.00
2019-05-10T03:32:07.648Z,1.52
2019-05-10T03:33:12.329Z,1.00
2019-05-10T03:34:16.816Z,0.90
2019-05-10T03:35:21.444Z,0.90
2019-05-10T03:36:25.891Z,0.80
2019-05-10T03:37:30.530Z,0.90
2019-05-10T03:38:35.115Z,1.00
2019-05-10T03:39:39.910Z,1.25
2019-05-10T03:40:44.386Z,1.00
2019-05-10T03:41:49.058Z,0.82
2019-05-10T03:42:53.651Z,1.00
2019-05-10T03:43:58.294Z,1.20
2019-05-10T03:45:02.824Z,0.90
2019-05-10T03:46:07.459Z,1.30
2019-05-10T03:47:11.874Z,1.30
2019-05-10T03:48:16.527Z,1.10
2019-05-10T03:49:21.004Z,1.00
2019-05-10T03:50:25.634Z,1.20
2019-05-10T03:51:30.081Z,0.90
2019-05-10T03:52:34.760Z,1.00
2019-05-10T03:53:39.406Z,0.90
2019-05-10T03:54:45.035Z,1.00
2019-05-10T03:55:49.498Z,1.30
2019-05-10T03:57:11.005Z,1.10
2019-05-10T03:58:00.254Z,1.20
2019-05-10T03:59:04.915Z,1.00
2019-05-10T04:00:09.547Z,1.12
2019-05-10T04:01:14.283Z,1.30
2019-05-10T04:02:18.810Z,1.50
2019-05-10T04:03:23.437Z,1.40
2019-05-10T04:04:27.875Z,1.15
2019-05-10T04:05:32.712Z,1.27
2019-05-10T04:06:37.206Z,1.20
2019-05-10T04:07:41.924Z,1.30
2019-05-10T04:08:46.449Z,1.20
2019-05-10T04:09:51.097Z,1.10
2019-05-10T04:10:55.786Z,1.20
2019-05-10T04:12:00.510Z,1.40
2019-05-10T04:13:05.087Z,1.47
2019-05-10T04:14:09.782Z,1.37
2019-05-10T04:15:14.383Z,1.00
2019-05-10T04:16:19.014Z,1.50
2019-05-10T04:17:23.475Z,1.10
2019-05-10T04:18:28.224Z,0.98
2019-05-10T04:19:32.844Z,1.05
2019-05-10T04:20:37.528Z,1.05
2019-05-10T04:21:42.018Z,1.27
2019-05-10T04:22:46.690Z,1.42
2019-05-10T04:23:51.191Z,1.05
2019-05-10T04:24:55.871Z,1.50
2019-05-10T04:26:00.296Z,1.32
2019-05-10T04:27:05.126Z,1.20
2019-05-10T04:28:09.621Z,1.07
2019-05-10T04:29:14.259Z,1.10
2019-05-10T04:30:19.005Z,1.30
2019-05-10T04:31:23.642Z,1.10
2019-05-10T04:32:28.138Z,1.02
2019-05-10T04:33:32.877Z,1.10
2019-05-10T04:34:37.378Z,1.10
2019-05-10T04:35:42.184Z,1.00
2019-05-10T04:36:46.689Z,0.90
2019-05-10T04:37:51.331Z,1.40
2019-05-10T04:38:55.758Z,1.00
2019-05-10T04:40:00.424Z,0.95
2019-05-10T04:41:05.031Z,1.10
2019-05-10T04:42:09.688Z,1.20
2019-05-10T04:43:14.241Z,1.00
2019-05-10T04:44:18.847Z,1.87
2019-05-10T04:45:23.299Z,1.25
2019-05-10T04:46:27.983Z,1.10
2019-05-10T04:47:32.590Z,1.07
2019-05-10T04:48:37.280Z,1.00
2019-05-10T04:49:41.776Z,1.25
2019-05-10T04:50:48.993Z,1.10
2019-05-10T04:51:52.511Z,0.90
2019-05-10T04:52:57.278Z,1.10
2019-05-10T04:54:01.830Z,1.27
2019-05-10T04:55:06.970Z,0.90
2019-05-10T04:56:11.461Z,1.00
2019-05-10T04:57:16.141Z,0.80
2019-05-10T04:58:20.614Z,0.98
2019-05-10T04:59:25.319Z,0.80
2019-05-10T05:00:29.833Z,1.10
2019-05-10T05:01:34.669Z,0.82
2019-05-10T05:02:39.240Z,0.90
2019-05-10T05:03:43.885Z,0.90
2019-05-10T05:04:48.371Z,0.90
2019-05-10T05:05:53.052Z,1.00
2019-05-10T05:06:57.512Z,1.00
2019-05-10T05:08:02.186Z,1.00
2019-05-10T05:09:07.755Z,1.22
2019-05-10T05:10:12.461Z,1.22
2019-05-10T05:11:16.939Z,1.25
2019-05-10T05:12:21.599Z,1.10
2019-05-10T05:13:26.159Z,1.00
2019-05-10T05:14:30.854Z,1.07
2019-05-10T05:15:35.308Z,0.80
2019-05-10T05:16:39.977Z,1.00
2019-05-10T05:17:44.442Z,1.32
2019-05-10T05:18:49.445Z,0.95
2019-05-10T05:19:53.941Z,0.95
2019-05-10T05:20:58.650Z,0.80
2019-05-10T05:22:03.149Z,1.67
2019-05-10T05:23:07.866Z,1.55
2019-05-10T05:24:16.829Z,2.27
2019-05-10T05:25:21.882Z,1.77
2019-05-10T05:26:25.000Z,2.10
2019-05-10T05:27:29.862Z,1.75
2019-05-10T05:28:34.332Z,2.70
2019-05-10T05:29:39.114Z,2.40
2019-05-10T05:30:43.683Z,3.08
2019-05-10T05:31:53.710Z,2.95
2019-05-10T05:32:56.946Z,2.20
2019-05-10T05:34:04.950Z,2.92
2019-05-10T05:35:07.000Z,2.60
2019-05-10T05:36:11.710Z,2.40
2019-05-10T05:37:16.200Z,2.67
2019-05-10T05:38:20.863Z,3.45
2019-05-10T05:39:25.311Z,2.83
2019-05-10T05:40:30.032Z,2.45
2019-05-10T05:41:47.974Z,2.58
2019-05-10T05:42:40.813Z,2.55
2019-05-10T05:43:46.425Z,2.40
2019-05-10T05:44:51.561Z,2.80
2019-05-10T05:45:56.118Z,2.42
2019-05-10T05:47:04.428Z,2.80
2019-05-10T05:49:58.936Z,2.45
2019-05-10T05:51:03.756Z,2.47
2019-05-10T05:52:08.239Z,2.20
2019-05-10T05:53:12.919Z,2.72
2019-05-10T05:54:20.644Z,2.47
2019-05-10T05:55:23.847Z,2.85
2019-05-10T05:56:28.324Z,2.72
2019-05-10T05:57:32.945Z,2.52
2019-05-10T05:58:37.961Z,3.00
2019-05-10T05:59:43.749Z,2.60
2019-05-10T06:00:48.359Z,2.60
2019-05-10T06:01:53.060Z,2.33
2019-05-10T06:02:57.537Z,3.00
2019-05-10T06:04:06.544Z,2.87
2019-05-10T06:05:08.531Z,2.67
2019-05-10T06:06:21.800Z,2.97
2019-05-10T06:07:19.321Z,2.83
2019-05-10T06:08:25.080Z,2.53
2019-05-10T06:09:32.053Z,2.97
2019-05-10T06:10:36.227Z,2.40
2019-05-10T06:11:40.717Z,2.43
2019-05-10T06:12:50.442Z,2.53
2019-05-10T06:13:51.509Z,3.17
2019-05-10T06:14:56.150Z,2.60
2019-05-10T06:16:05.856Z,2.87
2019-05-10T06:17:06.924Z,2.90
2019-05-10T06:18:12.185Z,3.33
2019-05-10T06:19:19.883Z,2.80
2019-05-10T06:20:23.142Z,2.87
2019-05-10T06:21:27.793Z,2.77
2019-05-10T06:22:32.223Z,2.70
2019-05-10T06:23:36.961Z,3.00
2019-05-10T06:24:46.519Z,3.00
2019-05-10T06:25:47.754Z,3.10
2019-05-10T06:26:52.291Z,2.47
2019-05-10T06:27:56.925Z,2.57
2019-05-10T06:29:04.674Z,2.87
2019-05-10T06:30:08.103Z,3.00
2019-05-10T06:31:12.582Z,2.50
2019-05-10T06:32:17.283Z,2.87
2019-05-10T06:33:21.821Z,2.90
2019-05-10T06:34:26.486Z,2.37
2019-05-10T06:35:31.004Z,2.60
2019-05-10T06:36:35.708Z,2.90
2019-05-10T06:37:40.406Z,2.70
2019-05-10T06:38:45.070Z,2.90
2019-05-10T06:39:49.542Z,2.80
2019-05-10T06:40:54.202Z,2.70
2019-05-10T06:41:58.654Z,3.00
2019-05-10T06:43:06.791Z,2.60
2019-05-10T06:44:09.617Z,2.90
2019-05-10T06:45:16.245Z,2.90
2019-05-10T06:46:23.638Z,2.67
2019-05-10T06:47:26.880Z,2.80
2019-05-10T06:48:33.601Z,2.80
2019-05-10T06:49:40.991Z,2.80
2019-05-10T06:50:43.844Z,2.60
2019-05-10T06:51:50.969Z,2.53
2019-05-10T06:53:00.486Z,2.67
2019-05-10T06:54:01.947Z,3.37
2019-05-10T06:55:06.706Z,2.77
2019-05-10T06:56:11.413Z,2.87
2019-05-10T06:57:17.633Z,6.37
2019-05-10T06:58:22.138Z,8.40
2019-05-10T06:59:26.619Z,4.90
2019-05-10T07:00:31.270Z,4.20
2019-05-10T07:01:38.498Z,3.77
2019-05-10T07:02:42.972Z,3.57
2019-05-10T07:03:47.564Z,3.20
2019-05-10T07:04:52.185Z,2.60
2019-05-10T07:05:56.670Z,3.30
2019-05-10T07:07:01.369Z,3.03
2019-05-10T07:08:16.584Z,2.70
2019-05-10T07:09:12.189Z,2.43
2019-05-10T07:10:19.550Z,2.73
2019-05-10T07:11:22.939Z,2.47
2019-05-10T07:12:30.084Z,2.60
2019-05-10T07:13:33.702Z,3.00
2019-05-10T07:14:45.085Z,2.67
2019-05-10T07:15:44.963Z,2.63
2019-05-10T07:16:49.731Z,2.83
2019-05-10T07:17:54.351Z,3.10
2019-05-10T07:19:00.756Z,3.10
2019-05-10T07:20:05.338Z,2.77
2019-05-10T07:21:09.766Z,2.70
2019-05-10T07:22:14.586Z,2.40
2019-05-10T07:23:19.029Z,2.60
2019-05-10T07:24:25.451Z,2.30
2019-05-10T07:25:30.031Z,2.57
2019-05-10T07:26:34.673Z,3.07
2019-05-10T07:27:39.260Z,2.67
2019-05-10T07:28:43.907Z,2.50
2019-05-10T07:29:48.579Z,2.60
2019-05-10T07:30:53.356Z,2.57
2019-05-10T07:31:57.794Z,2.25
2019-05-10T07:33:02.443Z,2.33
2019-05-10T07:34:09.814Z,2.23
2019-05-10T07:35:13.349Z,2.30
2019-05-10T07:36:20.702Z,2.20
2019-05-10T07:37:24.169Z,2.60
2019-05-10T07:38:30.988Z,2.30
2019-05-10T07:39:35.052Z,2.20
2019-05-10T07:40:39.577Z,2.50
2019-05-10T07:41:44.237Z,2.30
2019-05-10T07:42:48.754Z,2.50
2019-05-10T07:43:53.417Z,2.37
2019-05-10T07:44:57.913Z,2.30
2019-05-10T07:46:06.171Z,2.57
2019-05-10T07:47:08.710Z,2.20
2019-05-10T07:48:13.416Z,2.37
2019-05-10T07:49:17.867Z,2.10
2019-05-10T07:50:22.559Z,2.35
2019-05-10T07:51:28.720Z,2.35
2019-05-10T07:52:36.399Z,2.40
2019-05-10T07:53:39.541Z,2.50
2019-05-10T07:54:45.889Z,2.40
2019-05-10T07:55:50.388Z,2.40
2019-05-10T07:56:55.937Z,2.62
2019-05-10T07:58:05.087Z,2.00
2019-05-10T07:59:06.753Z,2.10
2019-05-10T08:00:11.605Z,2.40
2019-05-10T08:01:28.900Z,2.33
2019-05-10T08:02:22.375Z,2.27
2019-05-10T08:03:29.650Z,2.12
2019-05-10T08:04:33.764Z,1.90
2019-05-10T08:05:39.273Z,2.02
2019-05-10T08:06:47.449Z,2.62
2019-05-10T08:07:50.066Z,2.22
2019-05-10T08:08:55.413Z,2.23
2019-05-10T08:10:04.466Z,2.37
2019-05-10T08:11:08.589Z,2.20
2019-05-10T08:12:13.521Z,2.10
2019-05-10T08:13:21.241Z,2.60
2019-05-10T08:14:25.463Z,2.22
2019-05-10T08:15:34.640Z,2.20
2019-05-10T08:16:38.629Z,2.00
2019-05-10T08:17:45.492Z,2.05
2019-05-10T08:18:49.771Z,2.42
2019-05-10T08:19:54.434Z,2.00
2019-05-10T08:21:02.451Z,2.50
2019-05-10T08:22:05.362Z,2.50
2019-05-10T08:23:12.787Z,2.15
2019-05-10T08:24:16.818Z,1.85
2019-05-10T08:25:23.051Z,2.12
2019-05-10T08:26:27.716Z,2.22
2019-05-10T08:27:32.503Z,2.05
2019-05-10T08:28:39.812Z,2.35
2019-05-10T08:29:43.447Z,2.20
2019-05-10T08:30:57.294Z,2.40
2019-05-10T08:31:56.096Z,2.15
2019-05-10T08:33:09.127Z,2.30
2019-05-10T08:34:07.093Z,2.15
2019-05-10T08:35:17.135Z,2.02
2019-05-10T08:36:18.061Z,2.17
2019-05-10T08:37:33.011Z,2.52
2019-05-10T08:38:28.843Z,2.15
2019-05-10T08:39:43.946Z,1.90
2019-05-10T08:40:39.688Z,2.12
2019-05-10T08:41:45.837Z,2.45
2019-05-10T08:43:02.845Z,2.22
2019-05-10T08:43:56.702Z,2.00
2019-05-10T08:45:05.406Z,2.62
2019-05-10T08:46:07.506Z,2.15
2019-05-10T08:47:16.202Z,2.50
2019-05-10T08:48:18.258Z,2.00
2019-05-10T08:49:30.843Z,2.25
2019-05-10T08:50:45.602Z,2.10
2019-05-10T08:51:44.222Z,1.87
2019-05-10T08:52:42.299Z,2.20
2019-05-10T08:53:52.378Z,1.95
2019-05-10T08:54:55.284Z,2.00
2019-05-10T08:56:01.936Z,2.37
2019-05-10T08:57:06.093Z,2.20
2019-05-10T08:58:12.419Z,2.00
2019-05-10T08:59:23.618Z,2.30
2019-05-10T09:00:41.680Z,2.27
2019-05-10T09:01:31.398Z,2.20
2019-05-10T09:02:35.806Z,2.35
2019-05-10T09:03:41.978Z,2.05
2019-05-10T09:04:50.144Z,2.20
2019-05-10T09:05:53.011Z,2.33
2019-05-10T09:06:59.861Z,2.30
2019-05-10T09:08:05.812Z,2.30
2019-05-10T09:09:12.355Z,2.00
2019-05-10T09:10:16.605Z,2.15
2019-05-10T09:11:23.130Z,2.00
2019-05-10T09:12:29.492Z,2.40
2019-05-10T09:13:40.758Z,2.30
2019-05-10T09:14:42.436Z,2.77
2019-05-10T09:15:51.940Z,2.35
2019-05-10T09:17:00.827Z,2.30
2019-05-10T09:18:04.378Z,2.05
2019-05-10T09:19:04.856Z,2.25
2019-05-10T09:20:14.050Z,2.42
2019-05-10T09:21:16.841Z,2.27
2019-05-10T09:22:25.947Z,2.20
2019-05-10T09:23:27.600Z,2.15
2019-05-10T09:24:34.950Z,2.17
2019-05-10T09:25:38.673Z,2.30
2019-05-10T09:26:46.798Z,2.30
2019-05-10T09:27:49.443Z,2.33
2019-05-10T09:28:57.554Z,2.20
2019-05-10T09:30:02.775Z,2.20
2019-05-10T09:31:18.762Z,1.92
2019-05-10T09:32:12.973Z,2.20
2019-05-10T09:33:17.593Z,2.20
2019-05-10T10:54:17.455Z,2.47
2019-05-10T10:55:21.180Z,2.42
2019-05-10T10:56:27.655Z,2.10
2019-05-10T10:57:31.933Z,2.65
2019-05-10T10:58:36.362Z,2.27
2019-05-10T10:59:41.243Z,2.40
2019-05-10T11:00:47.978Z,2.37
2019-05-10T11:02:15.992Z,2.12
2019-05-10T11:02:58.228Z,2.30
2019-05-10T11:04:08.102Z,2.37
2019-05-10T11:05:09.713Z,2.58
2019-05-10T11:06:15.481Z,2.40
2019-05-10T11:07:19.990Z,2.40
2019-05-10T11:08:24.631Z,2.35
2019-05-10T11:09:31.144Z,2.30
2019-05-10T11:10:35.475Z,2.25
2019-05-10T11:11:44.349Z,2.50
2019-05-10T11:12:46.361Z,2.20
2019-05-10T11:13:58.571Z,2.37
2019-05-10T11:14:57.179Z,1.70
2019-05-10T11:16:09.712Z,2.10
2019-05-10T11:17:08.041Z,2.55
2019-05-10T11:18:12.589Z,2.60
2019-05-10T11:19:17.232Z,2.47
2019-05-10T11:20:21.741Z,2.42
2019-05-10T11:21:28.785Z,2.20
2019-05-10T11:22:32.462Z,2.17
2019-05-10T11:23:39.066Z,1.95
2019-05-10T11:24:43.219Z,2.58
2019-05-10T11:25:54.717Z,2.17
2019-05-10T11:26:53.958Z,2.65
2019-05-10T11:28:01.476Z,2.55
2019-05-10T11:29:04.828Z,2.33
2019-05-10T11:30:11.902Z,2.37
2019-05-10T11:31:15.727Z,2.22
2019-05-10T11:32:21.269Z,2.77
2019-05-10T11:33:30.062Z,2.58
2019-05-10T11:34:37.574Z,2.72
2019-05-10T11:35:38.473Z,2.12
2019-05-10T11:36:45.938Z,2.53
2019-05-10T11:37:50.831Z,2.47
2019-05-10T11:38:58.496Z,2.80
2019-05-10T11:40:01.949Z,2.37
2019-05-10T11:41:07.140Z,2.37
2019-05-10T11:42:15.399Z,2.40
2019-05-10T11:43:23.690Z,2.17
2019-05-10T11:44:25.971Z,2.73
2019-05-10T11:45:34.482Z,2.27
2019-05-10T11:46:36.920Z,2.20
2019-05-10T11:47:41.717Z,2.60
2019-05-10T11:48:46.169Z,2.37
2019-05-10T11:49:50.996Z,2.50
2019-05-10T11:50:55.587Z,2.45
2019-05-10T11:52:01.698Z,2.40
2019-05-10T11:53:13.343Z,2.40
2019-05-10T11:54:12.778Z,2.30
2019-05-10T11:55:17.573Z,2.13
2019-05-10T11:56:27.359Z,2.17
2019-05-10T11:57:28.487Z,2.53
2019-05-10T11:58:37.590Z,2.27
2019-05-10T11:59:41.585Z,2.80
2019-05-10T12:00:45.581Z,2.47
2019-05-10T12:01:57.949Z,2.30
2019-05-10T12:03:07.407Z,2.60
2019-05-10T12:04:05.098Z,2.30
2019-05-10T12:05:16.827Z,2.50
2019-05-10T12:06:15.592Z,2.42
2019-05-10T12:07:27.385Z,2.22
2019-05-10T12:08:26.531Z,2.00
2019-05-10T12:09:31.735Z,2.20
2019-05-10T12:10:44.153Z,2.43
2019-05-10T12:11:51.744Z,2.20
2019-05-10T12:13:04.854Z,2.10
2019-05-10T12:13:57.411Z,2.10
2019-05-10T12:15:04.425Z,2.07
2019-05-10T12:16:07.826Z,2.30
2019-05-10T12:17:14.233Z,2.30
2019-05-10T12:18:26.222Z,2.20
2019-05-10T12:19:24.939Z,2.30
2019-05-10T12:20:41.290Z,2.23
2019-05-10T12:21:36.415Z,2.27
2019-05-10T12:22:47.191Z,2.30
2019-05-10T12:26:12.077Z,2.62
2019-05-10T12:26:27.298Z,2.33
2019-05-10T12:27:12.851Z,2.60
2019-05-10T12:27:13.118Z,2.47
2019-05-10T12:28:15.461Z,2.40
2019-05-10T12:29:21.130Z,2.17
2019-05-10T12:30:24.767Z,2.40
2019-05-10T12:31:31.205Z,2.62
2019-05-10T12:32:42.019Z,2.42
2019-05-10T12:33:45.323Z,2.22
2019-05-10T12:34:51.880Z,2.10
2019-05-10T12:35:54.664Z,2.30
2019-05-10T12:37:03.862Z,1.87
2019-05-10T12:38:05.693Z,2.23
2019-05-10T12:39:11.576Z,2.03
2019-05-10T12:40:16.483Z,1.93
2019-05-10T12:41:23.177Z,2.10
2019-05-10T12:42:27.289Z,2.10
2019-05-10T12:43:31.802Z,2.00
2019-05-10T12:44:38.841Z,2.33
2019-05-10T12:45:42.803Z,2.03
2019-05-10T12:46:47.449Z,2.00
2019-05-10T12:47:52.102Z,2.10
2019-05-10T12:48:56.759Z,1.98
2019-05-10T12:50:02.319Z,2.00
2019-05-10T12:51:11.395Z,2.47
2019-05-10T12:53:25.110Z,1.70
2019-05-10T12:54:31.619Z,2.30
2019-05-10T12:55:35.871Z,2.00
2019-05-10T12:56:43.947Z,2.08
2019-05-10T12:57:46.785Z,2.20
2019-05-10T12:58:57.277Z,1.92
2019-05-10T12:59:57.567Z,2.08
2019-05-10T13:01:02.215Z,2.05
2019-05-10T13:02:11.084Z,2.50
2019-05-10T13:03:13.686Z,2.17
2019-05-10T13:04:18.363Z,2.15
2019-05-10T13:05:30.773Z,1.90
2019-05-10T13:06:29.122Z,2.33
2019-05-10T13:07:36.868Z,2.00
2019-05-10T13:08:40.475Z,1.90
2019-05-10T13:09:45.243Z,1.82
2019-05-10T13:10:50.182Z,2.42
2019-05-10T13:12:03.150Z,2.00
2019-05-10T13:13:01.242Z,2.00
2019-05-10T13:14:07.464Z,2.00
2019-05-10T13:15:12.649Z,2.10
2019-05-10T13:16:17.397Z,2.30
2019-05-10T13:17:21.955Z,2.22
2019-05-10T13:18:49.212Z,1.97
2019-05-10T13:19:32.811Z,2.00
2019-05-10T13:20:38.765Z,1.72
2019-05-10T13:21:43.525Z,2.60
2019-05-10T13:22:48.231Z,2.33
2019-05-10T13:23:53.929Z,1.90
2019-05-10T13:24:59.224Z,1.90
2019-05-10T13:26:03.782Z,2.42
2019-05-10T13:27:08.509Z,2.00
2019-05-10T13:28:13.024Z,2.08
2019-05-10T13:29:17.841Z,2.22
2019-05-10T13:30:27.484Z,2.00
2019-05-10T13:31:28.691Z,1.90
2019-05-10T13:32:33.190Z,2.12
2019-05-10T13:33:42.130Z,1.92
2019-05-10T13:34:44.044Z,2.12
2019-05-10T13:35:50.724Z,2.00
2019-05-10T13:36:54.855Z,2.10
2019-05-10T13:38:04.008Z,2.15
2019-05-10T13:39:06.593Z,2.17
2019-05-10T13:40:11.482Z,2.22
2019-05-10T13:41:17.771Z,2.37
2019-05-10T13:42:22.446Z,1.82
2019-05-10T13:43:28.395Z,2.05
2019-05-10T13:44:37.014Z,1.92
2019-05-10T13:45:39.794Z,2.10
2019-05-10T13:46:44.673Z,2.15
2019-05-10T13:47:49.176Z,2.15
2019-05-10T13:48:53.887Z,2.12
2019-05-10T13:49:58.374Z,1.95
2019-05-10T13:51:03.057Z,2.10
2019-05-10T13:52:07.650Z,2.10
2019-05-10T13:53:19.982Z,1.80
2019-05-10T13:54:18.765Z,2.10
2019-05-10T13:55:23.415Z,1.82
2019-05-10T13:56:27.909Z,2.20
2019-05-10T13:57:32.638Z,2.20
2019-05-10T13:58:37.190Z,1.85
2019-05-10T13:59:41.878Z,2.05
2019-05-10T14:00:46.590Z,2.00
2019-05-10T14:01:51.518Z,2.10
2019-05-10T14:02:56.193Z,1.90
2019-05-10T14:04:03.550Z,2.00
2019-05-10T14:05:11.730Z,2.00
2019-05-10T14:06:13.706Z,1.82
2019-05-10T14:07:18.196Z,2.20
2019-05-10T14:08:22.833Z,2.10
2019-05-10T14:09:27.363Z,2.05
2019-05-10T14:10:32.035Z,2.10
2019-05-10T14:11:40.429Z,2.05
2019-05-10T14:12:42.827Z,2.05
2019-05-10T14:13:47.438Z,2.20
2019-05-10T14:14:55.392Z,1.80
2019-05-10T14:15:58.317Z,1.90
2019-05-10T14:17:03.015Z,1.92
2019-05-10T14:18:07.514Z,2.25
2019-05-10T14:19:16.057Z,2.40
2019-05-10T14:20:25.067Z,2.35
2019-05-10T14:21:25.021Z,1.65
2019-05-10T14:22:29.536Z,1.92
2019-05-10T14:23:35.153Z,2.25
2019-05-10T14:24:40.483Z,2.25
2019-05-10T14:25:45.146Z,2.10
2019-05-10T14:26:51.527Z,2.08
2019-05-10T14:27:55.942Z,2.00
2019-05-10T14:29:00.449Z,2.15
2019-05-10T14:30:07.175Z,2.08
2019-05-10T14:31:11.521Z,2.40
2019-05-10T14:32:16.221Z,2.00
2019-05-10T14:33:20.751Z,2.15
2019-05-10T14:34:25.423Z,2.40
2019-05-10T14:35:29.918Z,2.00
2019-05-10T14:36:41.044Z,1.98
2019-05-10T14:37:40.860Z,2.00
2019-05-10T14:38:47.526Z,2.37
2019-05-10T14:39:51.860Z,2.58
2019-05-10T14:40:56.564Z,1.92
2019-05-10T14:42:01.078Z,2.37
2019-05-10T14:43:05.800Z,2.00
2019-05-10T14:44:10.304Z,2.27
2019-05-10T14:45:14.981Z,2.20
2019-05-10T14:46:19.437Z,2.30
2019-05-10T14:47:24.193Z,2.05
2019-05-10T14:48:30.729Z,2.00
2019-05-10T14:49:41.951Z,2.20
2019-05-10T14:50:46.539Z,2.02
2019-05-10T14:51:58.802Z,2.20
2019-05-10T14:52:55.464Z,2.15
2019-05-10T14:54:06.824Z,2.02
2019-05-10T14:55:07.417Z,2.20
2019-05-10T14:56:14.006Z,2.17
